createdAt,value
2023-05-04T00:01:58.351Z,9.77
2023-05-04T00:04:03.814Z,11.30
2023-05-04T00:06:08.984Z,11.52
2023-05-04T00:08:16.797Z,9.65
2023-05-04T00:10:22.380Z,10.93
2023-05-04T00:12:27.710Z,10.18
2023-05-04T00:14:33.259Z,9.05
2023-05-04T00:16:39.353Z,10.57
2023-05-04T00:18:44.655Z,10.48
2023-05-04T00:20:49.654Z,9.18
2023-05-04T00:22:54.551Z,9.10
2023-05-04T00:25:02.365Z,10.02
2023-05-04T00:27:07.673Z,9.98
2023-05-04T00:29:12.491Z,10.95
2023-05-04T00:31:19.492Z,8.48
2023-05-04T00:33:25.182Z,9.73
2023-05-04T00:35:31.834Z,9.48
2023-05-04T00:37:36.753Z,8.98
2023-05-04T00:39:41.693Z,8.80
2023-05-04T00:41:49.222Z,9.80
2023-05-04T00:43:54.473Z,8.20
2023-05-04T00:45:59.736Z,9.20
2023-05-04T00:48:04.761Z,8.68
2023-05-04T00:50:11.377Z,9.68
2023-05-04T00:52:17.913Z,9.75
2023-05-04T00:54:23.235Z,8.25
2023-05-04T00:56:27.078Z,9.40
2023-05-04T00:58:36.398Z,11.00
2023-05-04T01:00:41.685Z,10.75
2023-05-04T01:02:47.282Z,9.70
2023-05-04T01:04:53.853Z,8.68
2023-05-04T01:07:06.662Z,6.95
2023-05-04T01:09:19.299Z,8.30
2023-05-04T01:11:29.780Z,8.30
2023-05-04T01:13:38.257Z,8.38
2023-05-04T01:15:43.358Z,7.68
2023-05-04T01:17:48.490Z,9.45
2023-05-04T01:19:54.329Z,9.10
2023-05-04T01:22:02.029Z,8.50
2023-05-04T01:24:07.798Z,8.02
2023-05-04T01:26:20.828Z,9.75
2023-05-04T01:28:36.173Z,9.90
2023-05-04T01:30:44.114Z,7.75
2023-05-04T01:32:50.372Z,7.43
2023-05-04T01:34:55.440Z,9.07
2023-05-04T01:37:03.983Z,7.53
2023-05-04T01:39:10.004Z,8.25
2023-05-04T01:41:15.069Z,8.48
2023-05-04T01:43:20.283Z,10.18
2023-05-04T01:45:25.782Z,8.68
2023-05-04T01:47:31.163Z,7.45
2023-05-04T01:49:36.448Z,7.45
2023-05-04T01:51:41.554Z,9.95
2023-05-04T01:53:49.399Z,7.90
2023-05-04T01:55:54.305Z,8.10
2023-05-04T01:57:59.205Z,8.98
2023-05-04T02:00:04.380Z,7.32
2023-05-04T02:02:20.400Z,7.45
2023-05-04T02:04:25.571Z,9.57
2023-05-04T02:06:31.130Z,10.38
2023-05-04T02:08:36.302Z,8.00
2023-05-04T02:10:44.208Z,11.90
2023-05-04T02:12:49.337Z,7.95
2023-05-04T02:14:54.692Z,7.88
2023-05-04T02:16:59.851Z,7.85
2023-05-04T02:19:05.102Z,7.97
2023-05-04T02:21:10.320Z,7.35
2023-05-04T02:23:15.465Z,7.82
2023-05-04T02:25:20.951Z,7.75
2023-05-04T02:27:28.756Z,8.23
2023-05-04T02:29:33.961Z,9.07
2023-05-04T02:31:39.645Z,8.75
2023-05-04T02:33:45.156Z,6.70
2023-05-04T02:35:49.970Z,8.73
2023-05-04T02:37:55.011Z,6.65
2023-05-04T02:40:00.053Z,7.40
2023-05-04T02:42:05.020Z,8.93
2023-05-04T02:44:13.199Z,9.48
2023-05-04T02:46:20.439Z,8.43
2023-05-04T02:48:25.573Z,10.80
2023-05-04T02:50:31.457Z,9.75
2023-05-04T02:52:36.781Z,8.32
2023-05-04T02:54:41.778Z,10.80
2023-05-04T02:56:46.865Z,7.03
2023-05-04T02:58:52.173Z,7.85
2023-05-04T03:01:00.168Z,7.30
2023-05-04T03:03:05.334Z,6.90
2023-05-04T03:05:11.165Z,6.38
2023-05-04T03:07:16.292Z,8.00
2023-05-04T03:09:21.463Z,6.47
2023-05-04T03:11:27.012Z,8.63
2023-05-04T03:13:31.877Z,9.35
2023-05-04T03:15:37.499Z,7.85
2023-05-04T03:17:45.369Z,9.73
2023-05-04T03:19:50.745Z,7.88
2023-05-04T03:21:56.455Z,8.98
2023-05-04T03:24:01.692Z,8.20
2023-05-04T03:26:06.858Z,6.75
2023-05-04T03:28:11.810Z,7.00
2023-05-04T03:30:17.222Z,6.88
2023-05-04T03:32:25.081Z,8.18
2023-05-04T03:34:33.107Z,8.55
2023-05-04T03:36:41.775Z,7.88
2023-05-04T03:38:46.951Z,8.05
2023-05-04T03:40:52.332Z,7.72
2023-05-04T03:42:57.451Z,7.75
2023-05-04T03:45:04.052Z,8.95
2023-05-04T03:47:09.982Z,9.38
2023-05-04T03:49:15.009Z,7.63
2023-05-04T03:51:22.839Z,8.32
2023-05-04T03:53:28.120Z,7.75
2023-05-04T03:55:33.493Z,7.63
2023-05-04T03:57:38.834Z,7.65
2023-05-04T03:59:44.537Z,8.80
2023-05-04T04:01:50.062Z,8.07
2023-05-04T04:03:55.215Z,7.95
2023-05-04T04:06:00.545Z,8.25
2023-05-04T04:08:08.857Z,6.45
2023-05-04T04:10:14.113Z,6.85
2023-05-04T04:12:20.721Z,8.30
2023-05-04T04:14:25.637Z,7.45
2023-05-04T04:16:31.844Z,7.40
2023-05-04T04:18:37.346Z,8.77
2023-05-04T04:20:42.250Z,8.40
2023-05-04T04:22:47.184Z,9.00
2023-05-04T04:24:54.823Z,7.90
2023-05-04T04:27:00.290Z,7.53
2023-05-04T04:29:05.355Z,7.57
2023-05-04T04:31:11.015Z,8.00
2023-05-04T04:33:16.931Z,11.30
2023-05-04T04:35:22.694Z,10.27
2023-05-04T04:37:27.731Z,9.10
2023-05-04T04:39:33.092Z,7.70
2023-05-04T04:41:42.102Z,8.02
2023-05-04T04:43:47.554Z,8.18
2023-05-04T04:45:54.146Z,8.32
2023-05-04T04:47:59.447Z,8.18
2023-05-04T04:50:04.995Z,6.95
2023-05-04T04:52:11.392Z,6.85
2023-05-04T04:54:17.345Z,7.05
2023-05-04T04:56:22.335Z,8.45
2023-05-04T04:58:29.974Z,10.57
2023-05-04T05:00:36.084Z,7.43
2023-05-04T05:02:41.314Z,6.85
2023-05-04T05:04:46.510Z,7.57
2023-05-04T05:06:52.029Z,9.27
2023-05-04T05:08:57.094Z,7.38
2023-05-04T05:11:02.262Z,7.88
2023-05-04T05:13:09.134Z,9.80
2023-05-04T05:15:17.444Z,7.88
2023-05-04T05:17:23.355Z,8.60
2023-05-04T05:19:28.537Z,6.43
2023-05-04T05:21:33.731Z,7.85
2023-05-04T05:23:39.020Z,9.25
2023-05-04T05:25:44.522Z,9.02
2023-05-04T05:27:50.182Z,8.98
2023-05-04T05:29:55.320Z,10.40
2023-05-04T05:32:03.693Z,8.07
2023-05-04T05:34:08.965Z,9.20
2023-05-04T05:36:14.724Z,8.95
2023-05-04T05:38:19.866Z,8.45
2023-05-04T05:40:25.333Z,8.95
2023-05-04T05:42:33.149Z,9.40
2023-05-04T05:44:39.583Z,7.75
2023-05-04T05:46:44.829Z,8.95
2023-05-04T05:48:52.511Z,8.35
2023-05-04T05:50:57.736Z,11.68
2023-05-04T05:53:02.559Z,9.23
2023-05-04T05:55:08.181Z,6.75
2023-05-04T05:57:13.169Z,7.72
2023-05-04T05:59:18.228Z,6.97
2023-05-04T06:01:23.071Z,6.47
2023-05-04T06:03:28.170Z,7.03
2023-05-04T06:05:37.020Z,6.63
2023-05-04T06:07:41.924Z,8.85
2023-05-04T06:09:47.026Z,8.25
2023-05-04T06:11:54.761Z,7.15
2023-05-04T06:14:00.478Z,11.15
2023-05-04T06:16:06.000Z,8.82
2023-05-04T06:18:10.951Z,8.43
2023-05-04T06:20:16.333Z,8.25
2023-05-04T06:22:23.735Z,5.97
2023-05-04T06:24:30.064Z,7.18
2023-05-04T06:26:35.362Z,9.77
2023-05-04T06:28:40.316Z,7.72
2023-05-04T06:30:45.150Z,7.90
2023-05-04T06:32:50.251Z,8.90
2023-05-04T06:34:56.996Z,7.32
2023-05-04T06:37:02.652Z,7.03
2023-05-04T06:39:10.365Z,7.68
2023-05-04T06:41:15.372Z,7.55
2023-05-04T06:43:20.308Z,7.45
2023-05-04T06:45:25.460Z,8.20
2023-05-04T06:47:30.334Z,6.88
2023-05-04T06:49:35.433Z,7.40
2023-05-04T06:51:41.046Z,8.23
2023-05-04T06:53:45.921Z,8.98
2023-05-04T06:55:53.568Z,6.38
2023-05-04T06:57:58.904Z,9.40
2023-05-04T07:00:04.707Z,9.10
2023-05-04T07:02:10.196Z,8.95
2023-05-04T07:04:16.549Z,8.82
2023-05-04T07:06:21.852Z,7.32
2023-05-04T07:08:27.025Z,8.50
2023-05-04T07:10:32.008Z,11.40
2023-05-04T07:12:39.447Z,9.38
2023-05-04T07:14:45.067Z,6.97
2023-05-04T07:16:50.954Z,8.10
2023-05-04T07:18:55.761Z,8.07
2023-05-04T07:21:16.291Z,10.25
2023-05-04T07:23:25.490Z,6.72
2023-05-04T07:25:30.726Z,7.82
2023-05-04T07:27:35.691Z,8.73
2023-05-04T07:29:43.700Z,8.27
2023-05-04T07:31:48.625Z,8.18
2023-05-04T07:33:54.936Z,9.40
2023-05-04T07:36:01.150Z,8.15
2023-05-04T07:38:06.453Z,7.28
2023-05-04T07:40:15.060Z,7.15
2023-05-04T07:42:20.638Z,7.38
2023-05-04T07:44:25.626Z,8.13
2023-05-04T07:46:33.092Z,6.43
2023-05-04T07:48:37.942Z,9.23
2023-05-04T07:50:43.214Z,9.38
2023-05-04T07:52:49.530Z,9.15
2023-05-04T07:54:55.844Z,7.20
2023-05-04T07:57:01.396Z,7.70
2023-05-04T07:59:06.214Z,8.55
2023-05-04T08:01:11.246Z,6.70
2023-05-04T08:03:18.745Z,9.30
2023-05-04T08:05:23.783Z,8.43
2023-05-04T08:07:28.668Z,8.10
2023-05-04T08:09:33.953Z,7.90
2023-05-04T08:11:38.833Z,10.65
2023-05-04T08:13:44.004Z,10.60
2023-05-04T08:15:48.831Z,8.40
2023-05-04T08:17:55.102Z,13.25
2023-05-04T08:20:03.015Z,12.25
2023-05-04T08:22:09.109Z,8.02
2023-05-04T08:24:13.968Z,7.53
2023-05-04T08:26:20.858Z,9.88
2023-05-04T08:28:25.931Z,8.25
2023-05-04T08:30:31.523Z,7.20
2023-05-04T08:32:36.394Z,11.48
2023-05-04T08:34:41.245Z,10.07
2023-05-04T08:36:49.268Z,6.35
2023-05-04T08:38:54.134Z,6.22
2023-05-04T08:40:59.008Z,8.82
2023-05-04T08:43:03.992Z,9.32
2023-05-04T08:45:10.752Z,8.07
2023-05-04T08:47:15.785Z,7.30
2023-05-04T08:49:21.070Z,9.43
2023-05-04T08:51:26.594Z,8.85
2023-05-04T08:53:34.631Z,9.38
2023-05-04T08:55:42.254Z,8.60
2023-05-04T08:57:48.980Z,11.30
2023-05-04T08:59:56.938Z,9.73
2023-05-04T09:02:04.437Z,7.85
2023-05-04T09:04:09.640Z,7.32
2023-05-04T09:06:14.996Z,7.68
2023-05-04T09:08:20.771Z,7.30
2023-05-04T09:10:29.872Z,7.50
2023-05-04T09:12:37.965Z,8.55
2023-05-04T09:14:44.700Z,8.45
2023-05-04T09:16:49.767Z,8.80
2023-05-04T09:18:54.614Z,7.15
2023-05-04T09:20:59.963Z,8.02
2023-05-04T09:23:07.497Z,8.95
2023-05-04T09:25:14.070Z,8.02
2023-05-04T09:27:22.651Z,8.05
2023-05-04T09:29:27.877Z,7.40
2023-05-04T09:31:33.484Z,7.82
2023-05-04T09:33:38.723Z,7.07
2023-05-04T09:35:47.300Z,6.97
2023-05-04T09:37:52.315Z,7.68
2023-05-04T09:39:58.448Z,8.02
2023-05-04T09:42:04.024Z,7.70
2023-05-04T09:44:21.443Z,8.35
2023-05-04T09:46:26.493Z,9.52
2023-05-04T09:48:32.042Z,6.95
2023-05-04T09:50:40.255Z,8.35
2023-05-04T09:52:46.694Z,8.57
2023-05-04T09:54:55.008Z,7.88
2023-05-04T09:57:05.194Z,8.32
2023-05-04T09:59:13.185Z,6.80
2023-05-04T10:01:18.998Z,9.20
2023-05-04T10:03:24.462Z,8.02
2023-05-04T10:05:30.361Z,9.13
2023-05-04T10:07:36.771Z,7.82
2023-05-04T10:09:42.368Z,8.85
2023-05-04T10:11:47.582Z,7.38
2023-05-04T10:13:52.877Z,9.00
2023-05-04T10:16:10.423Z,6.45
2023-05-04T10:18:27.074Z,5.72
2023-05-04T10:20:44.741Z,7.15
2023-05-04T10:23:06.066Z,6.35
2023-05-04T10:25:34.939Z,6.13
2023-05-04T10:27:47.785Z,6.55
2023-05-04T10:32:01.782Z,7.80
2023-05-04T10:34:06.706Z,7.85
2023-05-04T10:36:12.237Z,6.43
2023-05-04T10:38:17.215Z,6.95
2023-05-04T10:40:22.512Z,8.88
2023-05-04T10:42:27.690Z,6.15
2023-05-04T10:44:34.583Z,6.80
2023-05-04T10:46:39.477Z,5.63
2023-05-04T10:48:46.994Z,6.88
2023-05-04T10:50:53.745Z,8.38
2023-05-04T10:53:00.105Z,7.43
2023-05-04T10:55:07.105Z,6.47
2023-05-04T10:57:16.786Z,7.32
2023-05-04T10:59:22.304Z,5.43
2023-05-04T11:01:27.773Z,5.97
2023-05-04T11:03:42.447Z,6.53
2023-05-04T11:05:52.536Z,5.72
2023-05-04T11:07:58.912Z,5.78
2023-05-04T11:10:05.412Z,5.35
2023-05-04T11:12:13.337Z,5.90
2023-05-04T11:14:27.078Z,6.28
2023-05-04T11:16:32.603Z,5.60
2023-05-04T11:18:38.360Z,5.20
2023-05-04T11:20:43.577Z,4.75
2023-05-04T11:22:51.422Z,6.85
2023-05-04T11:24:56.417Z,5.90
2023-05-04T11:27:01.357Z,5.45
2023-05-04T11:29:14.948Z,6.47
2023-05-04T11:31:21.587Z,5.30
2023-05-04T11:33:26.492Z,5.32
2023-05-04T11:35:31.580Z,6.85
2023-05-04T11:37:42.497Z,5.63
2023-05-04T11:39:49.956Z,6.95
2023-05-04T11:41:56.158Z,5.75
2023-05-04T11:44:02.595Z,5.43
2023-05-04T11:46:09.302Z,6.32
2023-05-04T11:48:15.903Z,6.85
2023-05-04T11:50:23.456Z,7.00
2023-05-04T11:52:30.839Z,5.90
2023-05-04T11:54:37.175Z,5.63
2023-05-04T11:56:47.292Z,7.65
2023-05-04T11:58:52.083Z,5.22
2023-05-04T12:01:01.685Z,5.10
2023-05-04T12:03:06.923Z,5.70
2023-05-04T12:05:17.151Z,6.28
2023-05-04T12:07:22.117Z,5.13
2023-05-04T12:09:26.925Z,5.80
2023-05-04T12:11:31.946Z,8.27
2023-05-04T12:13:39.694Z,6.63
2023-05-04T12:15:44.487Z,4.80
2023-05-04T12:17:49.389Z,4.70
2023-05-04T12:19:55.514Z,5.28
2023-05-04T12:22:02.494Z,4.57
2023-05-04T12:24:09.157Z,5.05
2023-05-04T12:26:16.920Z,5.80
2023-05-04T12:28:26.959Z,5.80
2023-05-04T12:30:34.346Z,4.57
2023-05-04T12:32:39.323Z,4.53
2023-05-04T12:34:44.133Z,5.05
2023-05-04T12:36:48.979Z,6.95
2023-05-04T12:38:54.028Z,4.55
2023-05-04T12:41:02.435Z,6.03
2023-05-04T12:43:07.180Z,5.30
2023-05-04T12:45:14.248Z,4.93
2023-05-04T12:47:24.594Z,4.30
2023-05-04T12:49:29.443Z,5.30
2023-05-04T12:51:34.703Z,4.32
2023-05-04T12:53:41.268Z,5.72
2023-05-04T12:55:46.070Z,5.25
2023-05-04T12:57:51.194Z,5.18
2023-05-04T12:59:56.142Z,4.85
2023-05-04T13:02:01.908Z,5.35
2023-05-04T13:04:09.315Z,7.40
2023-05-04T13:06:14.371Z,6.72
2023-05-04T13:08:19.989Z,7.82
2023-05-04T13:10:24.989Z,5.25
2023-05-04T13:12:30.068Z,5.18
2023-05-04T13:14:39.268Z,5.90
2023-05-04T13:16:44.772Z,8.23
2023-05-04T13:18:49.599Z,5.18
2023-05-04T13:20:57.010Z,6.88
2023-05-04T13:23:01.888Z,5.10
2023-05-04T13:25:08.020Z,4.38
2023-05-04T13:27:13.290Z,4.95
2023-05-04T13:29:18.121Z,4.88
2023-05-04T13:31:22.942Z,4.97
2023-05-04T13:33:29.656Z,4.13
2023-05-04T13:35:35.310Z,4.70
2023-05-04T13:37:42.845Z,3.95
2023-05-04T13:39:48.036Z,5.07
2023-05-04T13:41:52.824Z,4.53
2023-05-04T13:43:57.660Z,4.47
2023-05-04T13:46:05.782Z,4.47
2023-05-04T13:48:10.649Z,4.20
2023-05-04T13:50:15.960Z,5.38
2023-05-04T13:52:20.927Z,6.45
2023-05-04T13:54:28.500Z,3.67
2023-05-04T13:56:33.378Z,5.60
2023-05-04T13:58:38.093Z,4.07
2023-05-04T14:00:43.439Z,6.28
2023-05-04T14:02:48.458Z,4.22
2023-05-04T14:04:53.283Z,4.30
2023-05-04T14:06:58.027Z,4.65
2023-05-04T14:09:03.063Z,3.38
2023-05-04T14:11:10.413Z,8.52
2023-05-04T14:13:15.418Z,7.30
2023-05-04T14:15:22.839Z,4.20
2023-05-04T14:17:28.067Z,5.45
2023-05-04T14:19:32.830Z,4.38
2023-05-04T14:21:38.217Z,6.00
2023-05-04T14:23:44.852Z,6.43
2023-05-04T14:25:53.426Z,4.88
2023-05-04T14:28:00.954Z,4.00
2023-05-04T14:30:05.986Z,5.13
2023-05-04T14:32:10.941Z,5.07
2023-05-04T14:34:18.518Z,4.90
2023-05-04T14:36:23.276Z,6.85
2023-05-04T14:38:28.690Z,4.28
2023-05-04T14:40:33.576Z,4.22
2023-05-04T14:42:38.693Z,3.63
2023-05-04T14:44:46.083Z,4.45
2023-05-04T14:46:50.919Z,4.32
2023-05-04T14:48:55.654Z,5.35
2023-05-04T14:51:00.618Z,6.93
2023-05-04T14:53:05.507Z,9.02
2023-05-04T14:55:11.835Z,5.05
2023-05-04T14:57:16.579Z,4.05
2023-05-04T14:59:21.612Z,3.90
2023-05-04T15:01:29.222Z,4.97
2023-05-04T15:03:34.235Z,4.03
2023-05-04T15:05:39.146Z,5.65
2023-05-04T15:07:44.083Z,4.72
2023-05-04T15:09:48.864Z,5.25
2023-05-04T15:11:53.641Z,4.65
2023-05-04T15:13:59.263Z,4.60
2023-05-04T15:16:04.834Z,5.18
2023-05-04T15:18:12.774Z,3.85
2023-05-04T15:20:18.564Z,5.32
2023-05-04T15:22:23.406Z,3.95
2023-05-04T15:24:28.258Z,4.22
2023-05-04T15:26:34.699Z,4.90
2023-05-04T15:28:39.589Z,3.75
2023-05-04T15:30:45.196Z,5.03
2023-05-04T15:32:50.135Z,4.63
2023-05-04T15:35:05.312Z,4.10
2023-05-04T15:37:10.979Z,4.38
2023-05-04T15:39:16.215Z,3.60
2023-05-04T15:41:21.346Z,4.45
2023-05-04T15:43:26.456Z,5.30
2023-05-04T15:45:31.566Z,4.03
2023-05-04T15:47:36.673Z,5.22
2023-05-04T15:49:41.886Z,4.88
2023-05-04T15:51:49.246Z,5.63
2023-05-04T15:53:54.249Z,3.67
2023-05-04T15:55:59.022Z,3.30
2023-05-04T15:58:03.983Z,5.20
2023-05-04T16:00:10.922Z,4.63
2023-05-04T16:02:15.722Z,6.22
2023-05-04T16:04:20.960Z,6.13
2023-05-04T16:06:25.803Z,4.43
2023-05-04T16:08:33.156Z,4.85
2023-05-04T16:10:37.956Z,4.75
2023-05-04T16:12:42.760Z,4.57
2023-05-04T16:14:47.536Z,5.22
2023-05-04T16:16:52.360Z,4.68
2023-05-04T16:18:57.406Z,5.13
2023-05-04T16:21:02.241Z,4.13
2023-05-04T16:23:07.225Z,5.32
2023-05-04T16:25:14.776Z,5.93
2023-05-04T16:27:19.629Z,5.28
2023-05-04T16:29:24.640Z,5.25
2023-05-04T16:31:29.687Z,3.95
2023-05-04T16:33:34.738Z,5.57
2023-05-04T16:35:40.314Z,4.78
2023-05-04T16:37:45.121Z,5.22
2023-05-04T16:39:50.614Z,4.30
2023-05-04T16:41:57.928Z,3.65
2023-05-04T16:44:02.714Z,3.88
2023-05-04T16:46:07.749Z,5.43
2023-05-04T16:48:12.660Z,4.70
2023-05-04T16:50:17.573Z,6.03
2023-05-04T16:52:22.810Z,5.95
2023-05-04T16:54:27.588Z,6.25
2023-05-04T16:56:32.501Z,4.45
2023-05-04T16:58:40.057Z,5.43
2023-05-04T17:00:45.216Z,5.53
2023-05-04T17:02:50.055Z,5.68
2023-05-04T17:04:55.209Z,4.90
2023-05-04T17:07:01.558Z,5.43
2023-05-04T17:09:07.237Z,7.07
2023-05-04T17:11:12.045Z,5.68
2023-05-04T17:13:17.029Z,4.88
2023-05-04T17:15:24.521Z,4.88
2023-05-04T17:17:29.346Z,4.10
2023-05-04T17:19:34.356Z,6.10
2023-05-04T17:21:39.415Z,4.72
2023-05-04T17:23:44.313Z,5.00
2023-05-04T17:25:50.354Z,4.90
2023-05-04T17:27:55.152Z,4.57
2023-05-04T17:29:59.996Z,6.18
2023-05-04T17:32:08.225Z,5.00
2023-05-04T17:34:13.088Z,4.35
2023-05-04T17:36:17.866Z,7.22
2023-05-04T17:38:22.787Z,4.85
2023-05-04T17:40:28.160Z,5.05
2023-05-04T17:42:33.231Z,4.03
2023-05-04T17:44:38.084Z,4.10
2023-05-04T17:46:43.183Z,4.70
2023-05-04T17:48:52.400Z,5.05
2023-05-04T17:50:57.266Z,5.35
2023-05-04T17:53:02.017Z,5.53
2023-05-04T17:55:07.738Z,4.95
2023-05-04T17:57:12.478Z,4.88
2023-05-04T17:59:17.978Z,4.43
2023-05-04T18:01:22.934Z,3.95
2023-05-04T18:03:28.036Z,4.13
2023-05-04T18:05:35.630Z,4.43
2023-05-04T18:07:40.480Z,4.63
2023-05-04T18:09:45.355Z,4.90
2023-05-04T18:11:50.515Z,4.93
2023-05-04T18:13:56.647Z,6.53
2023-05-04T18:16:01.568Z,5.50
2023-05-04T18:18:06.545Z,4.28
2023-05-04T18:20:13.275Z,4.55
2023-05-04T18:22:20.810Z,4.28
2023-05-04T18:24:26.116Z,4.78
2023-05-04T18:26:31.279Z,5.18
2023-05-04T18:28:36.298Z,5.38
2023-05-04T18:30:41.076Z,5.75
2023-05-04T18:32:46.774Z,4.40
2023-05-04T18:34:53.308Z,3.90
2023-05-04T18:36:58.113Z,4.72
2023-05-04T18:39:05.558Z,5.05
2023-05-04T18:41:12.008Z,5.45
2023-05-04T18:43:17.073Z,5.22
2023-05-04T18:45:22.121Z,4.78
2023-05-04T18:47:27.174Z,5.18
2023-05-04T18:49:31.973Z,6.38
2023-05-04T18:51:36.780Z,4.90
2023-05-04T18:53:41.637Z,4.65
2023-05-04T18:55:49.044Z,4.88
2023-05-04T18:57:53.816Z,4.75
2023-05-04T18:59:58.516Z,10.00
2023-05-04T19:02:04.277Z,7.25
2023-05-04T19:04:09.074Z,4.57
2023-05-04T19:06:13.843Z,6.20
2023-05-04T19:08:19.074Z,4.78
2023-05-04T19:10:23.839Z,3.42
2023-05-04T19:12:31.177Z,4.32
2023-05-04T19:14:35.936Z,6.03
2023-05-04T19:16:40.626Z,5.22
2023-05-04T19:18:46.171Z,4.25
2023-05-04T19:20:51.290Z,4.38
2023-05-04T19:22:56.110Z,4.28
2023-05-04T19:25:00.799Z,4.28
2023-05-04T19:27:05.601Z,4.30
2023-05-04T19:29:13.076Z,6.57
2023-05-04T19:31:18.111Z,5.57
2023-05-04T19:33:24.617Z,5.03
2023-05-04T19:35:31.092Z,3.97
2023-05-04T19:37:36.288Z,3.60
2023-05-04T19:39:41.287Z,3.65
2023-05-04T19:41:46.235Z,3.22
2023-05-04T19:43:51.084Z,4.32
2023-05-04T19:45:58.979Z,5.03
2023-05-04T19:48:04.697Z,5.18
2023-05-04T19:50:14.275Z,2.60
2023-05-04T19:52:19.255Z,3.42
2023-05-04T19:54:23.979Z,2.67
2023-05-04T19:56:28.743Z,4.75
2023-05-04T19:58:33.442Z,4.95
2023-05-04T20:00:38.194Z,3.30
2023-05-04T20:02:45.953Z,3.38
2023-05-04T20:04:51.482Z,3.95
2023-05-04T20:06:56.237Z,2.92
2023-05-04T20:09:01.019Z,3.60
2023-05-04T20:11:05.734Z,4.22
2023-05-04T20:13:10.452Z,3.78
2023-05-04T20:15:16.165Z,3.42
2023-05-04T20:17:21.063Z,4.13
2023-05-04T20:19:28.582Z,4.63
2023-05-04T20:21:33.765Z,3.40
2023-05-04T20:23:38.477Z,3.63
2023-05-04T20:25:43.168Z,3.58
2023-05-04T20:27:49.183Z,5.40
2023-05-04T20:29:53.943Z,3.42
2023-05-04T20:31:58.904Z,5.95
2023-05-04T20:34:03.707Z,3.40
2023-05-04T20:36:12.738Z,5.93
2023-05-04T20:38:17.639Z,4.70
2023-05-04T20:40:22.608Z,5.68
2023-05-04T20:42:27.469Z,5.20
2023-05-04T20:44:32.316Z,4.43
2023-05-04T20:46:37.556Z,4.25
2023-05-04T20:48:42.523Z,5.32
2023-05-04T20:50:47.252Z,3.63
2023-05-04T20:52:54.625Z,3.08
2023-05-04T20:54:59.437Z,4.53
2023-05-04T20:57:04.361Z,3.78
2023-05-04T20:59:09.554Z,4.28
2023-05-04T21:01:14.249Z,6.22
2023-05-04T21:03:19.079Z,4.82
2023-05-04T21:05:23.793Z,6.30
2023-05-04T21:07:28.589Z,5.53
2023-05-04T21:09:35.976Z,3.90
2023-05-04T21:11:40.935Z,4.93
2023-05-04T21:13:45.637Z,4.25
2023-05-04T21:15:50.433Z,5.20
2023-05-04T21:17:55.540Z,4.95
2023-05-04T21:20:00.356Z,6.45
2023-05-04T21:22:05.079Z,5.40
2023-05-04T21:24:13.834Z,4.13
2023-05-04T21:26:21.159Z,6.72
2023-05-04T21:28:25.827Z,5.13
2023-05-04T21:30:30.817Z,4.90
2023-05-04T21:32:35.877Z,5.30
2023-05-04T21:34:40.648Z,5.82
2023-05-04T21:36:45.444Z,4.18
2023-05-04T21:38:50.163Z,4.43
2023-05-04T21:40:54.854Z,5.75
2023-05-04T21:43:02.445Z,14.88
2023-05-04T21:45:08.401Z,7.88
2023-05-04T21:47:13.136Z,4.18
2023-05-04T21:49:18.133Z,4.70
2023-05-04T21:51:22.918Z,4.72
2023-05-04T21:53:33.125Z,5.90
2023-05-04T21:55:37.889Z,5.85
2023-05-04T21:57:42.662Z,5.85
2023-05-04T21:59:50.461Z,6.93
2023-05-04T22:01:55.224Z,5.10
2023-05-04T22:03:59.933Z,5.75
2023-05-04T22:06:05.151Z,5.63
2023-05-04T22:08:09.800Z,5.15
2023-05-04T22:10:14.862Z,7.15
2023-05-04T22:12:19.572Z,6.00
2023-05-04T22:14:24.478Z,6.07
2023-05-04T22:16:31.834Z,8.85
2023-05-04T22:18:36.678Z,3.80
2023-05-04T22:20:42.348Z,8.50
2023-05-04T22:22:47.164Z,4.38
2023-05-04T22:24:52.028Z,7.03
2023-05-04T22:26:56.805Z,6.68
2023-05-04T22:29:01.588Z,5.80
2023-05-04T22:31:06.441Z,5.07
2023-05-04T22:33:13.767Z,6.00
2023-05-04T22:35:18.580Z,4.38
2023-05-04T22:37:23.349Z,6.70
2023-05-04T22:39:28.673Z,6.80
2023-05-04T22:41:33.339Z,8.70
2023-05-04T22:43:38.103Z,8.90
2023-05-04T22:45:42.854Z,9.70
2023-05-04T22:47:48.163Z,12.45
2023-05-04T22:49:57.122Z,9.15
2023-05-04T22:52:02.350Z,10.70
2023-05-04T22:54:07.222Z,12.43
2023-05-04T22:56:12.059Z,7.72
2023-05-04T22:58:16.716Z,8.20
2023-05-04T23:00:22.577Z,7.18
2023-05-04T23:02:27.457Z,7.97
2023-05-04T23:04:32.885Z,8.43
2023-05-04T23:06:41.363Z,10.82
2023-05-04T23:08:46.086Z,8.43
2023-05-04T23:10:50.920Z,9.02
2023-05-04T23:12:56.377Z,8.25
2023-05-04T23:15:01.358Z,9.07
2023-05-04T23:17:06.305Z,11.25
2023-05-04T23:19:11.001Z,10.20
2023-05-04T23:21:15.693Z,10.15
2023-05-04T23:23:23.001Z,11.18
2023-05-04T23:25:29.518Z,9.95
2023-05-04T23:27:34.270Z,11.20
2023-05-04T23:29:39.173Z,10.98
2023-05-04T23:31:43.890Z,7.72
2023-05-04T23:33:48.728Z,9.73
2023-05-04T23:35:57.088Z,7.85
2023-05-04T23:38:01.852Z,7.00
2023-05-04T23:40:11.230Z,7.25
2023-05-04T23:42:15.975Z,6.32
2023-05-04T23:44:21.445Z,5.13
2023-05-04T23:46:26.147Z,5.97
2023-05-04T23:48:31.129Z,7.72
2023-05-04T23:50:35.902Z,7.25
2023-05-04T23:52:40.607Z,5.90
2023-05-04T23:54:46.628Z,7.50
2023-05-04T23:56:53.969Z,6.45
2023-05-04T23:58:58.677Z,5.28
